sensor_id;sensor_type;location;lat;lon;timestamp;temperature;humidity
31677;DHT22;18385;51.572;6.578;2023-05-10T00:00:45;16.20;62.90
31677;DHT22;18385;51.572;6.578;2023-05-10T00:03:11;16.20;62.90
31677;DHT22;18385;51.572;6.578;2023-05-10T00:05:37;16.20;62.90
31677;DHT22;18385;51.572;6.578;2023-05-10T00:08:03;16.20;62.90
31677;DHT22;18385;51.572;6.578;2023-05-10T00:10:28;16.20;63.00
31677;DHT22;18385;51.572;6.578;2023-05-10T00:12:54;16.20;63.00
31677;DHT22;18385;51.572;6.578;2023-05-10T00:15:19;16.10;63.00
31677;DHT22;18385;51.572;6.578;2023-05-10T00:17:45;16.10;63.20
31677;DHT22;18385;51.572;6.578;2023-05-10T00:20:11;16.10;63.20
31677;DHT22;18385;51.572;6.578;2023-05-10T00:22:37;16.10;63.20
31677;DHT22;18385;51.572;6.578;2023-05-10T00:25:02;16.20;63.20
31677;DHT22;18385;51.572;6.578;2023-05-10T00:27:28;16.20;63.20
31677;DHT22;18385;51.572;6.578;2023-05-10T00:29:54;16.20;63.20
31677;DHT22;18385;51.572;6.578;2023-05-10T00:32:19;16.20;63.20
31677;DHT22;18385;51.572;6.578;2023-05-10T00:34:45;16.20;63.20
31677;DHT22;18385;51.572;6.578;2023-05-10T00:37:11;16.20;63.20
31677;DHT22;18385;51.572;6.578;2023-05-10T00:39:37;16.20;63.20
31677;DHT22;18385;51.572;6.578;2023-05-10T00:42:02;16.20;63.20
31677;DHT22;18385;51.572;6.578;2023-05-10T00:44:30;16.20;63.20
31677;DHT22;18385;51.572;6.578;2023-05-10T00:46:56;16.20;63.30
31677;DHT22;18385;51.572;6.578;2023-05-10T00:49:22;16.20;63.10
31677;DHT22;18385;51.572;6.578;2023-05-10T00:51:49;16.20;63.20
31677;DHT22;18385;51.572;6.578;2023-05-10T00:54:15;16.20;63.20
31677;DHT22;18385;51.572;6.578;2023-05-10T00:56:41;16.20;63.20
31677;DHT22;18385;51.572;6.578;2023-05-10T00:59:10;16.20;63.30
31677;DHT22;18385;51.572;6.578;2023-05-10T01:01:37;16.30;63.20
31677;DHT22;18385;51.572;6.578;2023-05-10T01:04:03;16.30;63.10
31677;DHT22;18385;51.572;6.578;2023-05-10T01:06:29;16.30;63.00
31677;DHT22;18385;51.572;6.578;2023-05-10T01:08:55;16.20;63.10
31677;DHT22;18385;51.572;6.578;2023-05-10T01:11:21;16.20;63.10
31677;DHT22;18385;51.572;6.578;2023-05-10T01:13:54;16.20;63.20
31677;DHT22;18385;51.572;6.578;2023-05-10T01:16:21;16.30;63.20
31677;DHT22;18385;51.572;6.578;2023-05-10T01:18:48;16.30;63.20
31677;DHT22;18385;51.572;6.578;2023-05-10T01:21:33;16.30;63.10
31677;DHT22;18385;51.572;6.578;2023-05-10T01:32:16;16.30;63.60
31677;DHT22;18385;51.572;6.578;2023-05-10T01:37:23;16.30;63.10
31677;DHT22;18385;51.572;6.578;2023-05-10T01:40:00;16.40;63.10
31677;DHT22;18385;51.572;6.578;2023-05-10T01:42:29;16.40;63.20
31677;DHT22;18385;51.572;6.578;2023-05-10T01:45:24;16.50;62.90
31677;DHT22;18385;51.572;6.578;2023-05-10T01:47:58;16.50;62.80
31677;DHT22;18385;51.572;6.578;2023-05-10T01:50:29;16.40;62.70
31677;DHT22;18385;51.572;6.578;2023-05-10T01:52:57;16.40;62.70
31677;DHT22;18385;51.572;6.578;2023-05-10T01:55:30;16.40;62.80
31677;DHT22;18385;51.572;6.578;2023-05-10T01:58:09;16.50;62.90
31677;DHT22;18385;51.572;6.578;2023-05-10T02:00:36;16.60;62.80
31677;DHT22;18385;51.572;6.578;2023-05-10T02:03:05;16.60;62.70
31677;DHT22;18385;51.572;6.578;2023-05-10T02:05:33;16.60;62.80
31677;DHT22;18385;51.572;6.578;2023-05-10T02:08:01;16.60;62.80
31677;DHT22;18385;51.572;6.578;2023-05-10T02:10:28;16.60;62.60
31677;DHT22;18385;51.572;6.578;2023-05-10T02:12:55;16.60;62.50
31677;DHT22;18385;51.572;6.578;2023-05-10T02:15:23;16.50;62.50
31677;DHT22;18385;51.572;6.578;2023-05-10T02:17:50;16.50;62.70
31677;DHT22;18385;51.572;6.578;2023-05-10T02:20:17;16.40;62.70
31677;DHT22;18385;51.572;6.578;2023-05-10T02:22:45;16.40;62.80
31677;DHT22;18385;51.572;6.578;2023-05-10T02:25:14;16.50;62.80
31677;DHT22;18385;51.572;6.578;2023-05-10T02:27:41;16.50;62.70
31677;DHT22;18385;51.572;6.578;2023-05-10T02:30:09;16.60;62.70
31677;DHT22;18385;51.572;6.578;2023-05-10T02:32:36;16.60;62.60
31677;DHT22;18385;51.572;6.578;2023-05-10T02:35:03;16.70;62.60
31677;DHT22;18385;51.572;6.578;2023-05-10T02:37:29;16.70;62.60
31677;DHT22;18385;51.572;6.578;2023-05-10T02:39:56;16.70;62.50
31677;DHT22;18385;51.572;6.578;2023-05-10T02:42:26;16.70;62.50
31677;DHT22;18385;51.572;6.578;2023-05-10T02:44:55;16.80;62.50
31677;DHT22;18385;51.572;6.578;2023-05-10T02:47:21;16.80;62.40
31677;DHT22;18385;51.572;6.578;2023-05-10T02:49:47;16.70;62.40
31677;DHT22;18385;51.572;6.578;2023-05-10T02:52:21;16.70;62.40
31677;DHT22;18385;51.572;6.578;2023-05-10T02:54:50;16.70;62.40
31677;DHT22;18385;51.572;6.578;2023-05-10T02:57:25;16.70;62.40
31677;DHT22;18385;51.572;6.578;2023-05-10T02:59:51;16.80;62.50
31677;DHT22;18385;51.572;6.578;2023-05-10T03:02:17;16.80;62.40
31677;DHT22;18385;51.572;6.578;2023-05-10T03:04:43;16.80;62.40
31677;DHT22;18385;51.572;6.578;2023-05-10T03:07:09;16.80;62.30
31677;DHT22;18385;51.572;6.578;2023-05-10T03:09:35;16.80;62.30
31677;DHT22;18385;51.572;6.578;2023-05-10T03:17:31;16.80;62.40
31677;DHT22;18385;51.572;6.578;2023-05-10T03:20:08;16.80;62.50
31677;DHT22;18385;51.572;6.578;2023-05-10T03:22:51;16.80;62.40
31677;DHT22;18385;51.572;6.578;2023-05-10T03:25:19;16.90;62.40
31677;DHT22;18385;51.572;6.578;2023-05-10T03:27:46;16.90;62.40
31677;DHT22;18385;51.572;6.578;2023-05-10T03:30:13;16.90;62.30
31677;DHT22;18385;51.572;6.578;2023-05-10T03:32:39;17.00;62.30
31677;DHT22;18385;51.572;6.578;2023-05-10T03:35:09;17.00;62.20
31677;DHT22;18385;51.572;6.578;2023-05-10T03:37:35;17.00;62.20
31677;DHT22;18385;51.572;6.578;2023-05-10T03:40:02;17.00;62.20
31677;DHT22;18385;51.572;6.578;2023-05-10T03:42:30;17.00;62.30
31677;DHT22;18385;51.572;6.578;2023-05-10T03:44:56;17.00;62.20
31677;DHT22;18385;51.572;6.578;2023-05-10T03:47:21;17.00;62.20
31677;DHT22;18385;51.572;6.578;2023-05-10T03:49:47;16.90;62.20
31677;DHT22;18385;51.572;6.578;2023-05-10T03:52:13;16.90;62.20
31677;DHT22;18385;51.572;6.578;2023-05-10T03:54:38;16.90;62.30
31677;DHT22;18385;51.572;6.578;2023-05-10T03:57:04;16.90;62.40
31677;DHT22;18385;51.572;6.578;2023-05-10T03:59:30;16.90;62.30
31677;DHT22;18385;51.572;6.578;2023-05-10T04:01:56;16.90;62.50
31677;DHT22;18385;51.572;6.578;2023-05-10T04:04:22;16.90;62.50
31677;DHT22;18385;51.572;6.578;2023-05-10T04:06:49;16.90;62.60
31677;DHT22;18385;51.572;6.578;2023-05-10T04:09:15;16.90;62.50
31677;DHT22;18385;51.572;6.578;2023-05-10T04:11:42;17.00;62.50
31677;DHT22;18385;51.572;6.578;2023-05-10T04:14:08;17.00;62.30
31677;DHT22;18385;51.572;6.578;2023-05-10T04:16:34;17.00;62.40
31677;DHT22;18385;51.572;6.578;2023-05-10T04:18:59;17.00;62.30
31677;DHT22;18385;51.572;6.578;2023-05-10T04:21:25;17.00;62.30
31677;DHT22;18385;51.572;6.578;2023-05-10T04:23:51;17.00;62.30
31677;DHT22;18385;51.572;6.578;2023-05-10T04:26:17;17.00;62.30
31677;DHT22;18385;51.572;6.578;2023-05-10T04:28:42;17.00;62.40
31677;DHT22;18385;51.572;6.578;2023-05-10T04:31:09;17.00;62.50
31677;DHT22;18385;51.572;6.578;2023-05-10T04:33:36;17.00;62.50
31677;DHT22;18385;51.572;6.578;2023-05-10T04:36:02;17.00;62.50
31677;DHT22;18385;51.572;6.578;2023-05-10T04:38:29;17.00;62.40
31677;DHT22;18385;51.572;6.578;2023-05-10T04:41:03;17.10;62.50
31677;DHT22;18385;51.572;6.578;2023-05-10T04:43:28;17.10;62.50
31677;DHT22;18385;51.572;6.578;2023-05-10T04:45:56;17.10;62.50
31677;DHT22;18385;51.572;6.578;2023-05-10T04:48:22;17.10;62.60
31677;DHT22;18385;51.572;6.578;2023-05-10T04:50:47;17.10;62.50
31677;DHT22;18385;51.572;6.578;2023-05-10T04:53:13;17.10;62.70
31677;DHT22;18385;51.572;6.578;2023-05-10T04:55:39;17.10;62.60
31677;DHT22;18385;51.572;6.578;2023-05-10T04:58:04;17.10;62.60
31677;DHT22;18385;51.572;6.578;2023-05-10T05:00:30;17.10;62.70
31677;DHT22;18385;51.572;6.578;2023-05-10T05:02:55;17.20;62.60
31677;DHT22;18385;51.572;6.578;2023-05-10T05:05:21;17.30;62.60
31677;DHT22;18385;51.572;6.578;2023-05-10T05:07:47;17.30;62.50
31677;DHT22;18385;51.572;6.578;2023-05-10T05:10:12;17.30;62.50
31677;DHT22;18385;51.572;6.578;2023-05-10T05:12:39;17.30;62.50
31677;DHT22;18385;51.572;6.578;2023-05-10T05:15:05;17.40;62.50
31677;DHT22;18385;51.572;6.578;2023-05-10T05:17:31;17.40;62.50
31677;DHT22;18385;51.572;6.578;2023-05-10T05:19:57;17.50;62.50
31677;DHT22;18385;51.572;6.578;2023-05-10T05:22:22;17.50;62.50
31677;DHT22;18385;51.572;6.578;2023-05-10T05:24:53;17.60;62.60
31677;DHT22;18385;51.572;6.578;2023-05-10T05:27:19;17.70;62.20
31677;DHT22;18385;51.572;6.578;2023-05-10T05:29:58;17.70;62.20
31677;DHT22;18385;51.572;6.578;2023-05-10T05:32:24;17.70;62.20
31677;DHT22;18385;51.572;6.578;2023-05-10T05:34:50;17.70;62.20
31677;DHT22;18385;51.572;6.578;2023-05-10T05:37:20;17.80;62.20
31677;DHT22;18385;51.572;6.578;2023-05-10T05:39:46;17.70;62.10
31677;DHT22;18385;51.572;6.578;2023-05-10T05:42:13;17.70;62.10
31677;DHT22;18385;51.572;6.578;2023-05-10T05:44:38;17.70;62.10
31677;DHT22;18385;51.572;6.578;2023-05-10T05:47:05;17.60;62.20
31677;DHT22;18385;51.572;6.578;2023-05-10T05:49:32;17.60;62.30
31677;DHT22;18385;51.572;6.578;2023-05-10T05:52:01;17.60;62.40
31677;DHT22;18385;51.572;6.578;2023-05-10T05:54:28;17.60;62.40
31677;DHT22;18385;51.572;6.578;2023-05-10T05:56:55;17.60;62.30
31677;DHT22;18385;51.572;6.578;2023-05-10T05:59:21;17.60;62.50
31677;DHT22;18385;51.572;6.578;2023-05-10T06:01:47;17.60;62.60
31677;DHT22;18385;51.572;6.578;2023-05-10T06:04:12;17.60;62.50
31677;DHT22;18385;51.572;6.578;2023-05-10T06:06:38;17.60;62.40
31677;DHT22;18385;51.572;6.578;2023-05-10T06:09:04;17.70;62.60
31677;DHT22;18385;51.572;6.578;2023-05-10T06:11:29;17.70;62.50
31677;DHT22;18385;51.572;6.578;2023-05-10T06:13:57;17.70;62.50
31677;DHT22;18385;51.572;6.578;2023-05-10T06:16:23;17.70;62.40
31677;DHT22;18385;51.572;6.578;2023-05-10T06:18:49;17.70;62.60
31677;DHT22;18385;51.572;6.578;2023-05-10T06:21:14;17.80;62.80
31677;DHT22;18385;51.572;6.578;2023-05-10T06:23:41;17.90;62.80
31677;DHT22;18385;51.572;6.578;2023-05-10T06:26:07;18.00;62.60
31677;DHT22;18385;51.572;6.578;2023-05-10T06:28:33;18.00;62.40
31677;DHT22;18385;51.572;6.578;2023-05-10T06:30:59;18.00;62.30
31677;DHT22;18385;51.572;6.578;2023-05-10T06:33:25;18.10;62.40
31677;DHT22;18385;51.572;6.578;2023-05-10T06:35:51;18.10;62.30
31677;DHT22;18385;51.572;6.578;2023-05-10T06:38:17;18.20;62.40
31677;DHT22;18385;51.572;6.578;2023-05-10T06:40:43;18.20;62.40
31677;DHT22;18385;51.572;6.578;2023-05-10T06:43:09;18.30;62.30
31677;DHT22;18385;51.572;6.578;2023-05-10T06:45:35;18.40;62.10
31677;DHT22;18385;51.572;6.578;2023-05-10T06:48:01;18.40;62.00
31677;DHT22;18385;51.572;6.578;2023-05-10T06:50:27;18.30;62.80
31677;DHT22;18385;51.572;6.578;2023-05-10T06:52:52;18.30;62.10
31677;DHT22;18385;51.572;6.578;2023-05-10T06:55:18;18.40;62.30
31677;DHT22;18385;51.572;6.578;2023-05-10T06:57:44;18.40;62.10
31677;DHT22;18385;51.572;6.578;2023-05-10T07:00:10;18.40;62.00
31677;DHT22;18385;51.572;6.578;2023-05-10T07:02:36;18.40;62.10
31677;DHT22;18385;51.572;6.578;2023-05-10T07:05:01;18.30;62.90
31677;DHT22;18385;51.572;6.578;2023-05-10T07:07:27;18.20;62.00
31677;DHT22;18385;51.572;6.578;2023-05-10T07:09:54;18.20;62.30
31677;DHT22;18385;51.572;6.578;2023-05-10T07:12:20;18.20;62.40
31677;DHT22;18385;51.572;6.578;2023-05-10T07:14:45;18.30;62.80
31677;DHT22;18385;51.572;6.578;2023-05-10T07:17:11;18.40;62.60
31677;DHT22;18385;51.572;6.578;2023-05-10T07:19:37;18.50;62.30
31677;DHT22;18385;51.572;6.578;2023-05-10T07:22:03;18.50;62.40
31677;DHT22;18385;51.572;6.578;2023-05-10T07:24:28;18.70;62.40
31677;DHT22;18385;51.572;6.578;2023-05-10T07:26:55;18.70;62.10
31677;DHT22;18385;51.572;6.578;2023-05-10T07:29:20;18.80;62.10
31677;DHT22;18385;51.572;6.578;2023-05-10T07:31:46;18.80;62.10
31677;DHT22;18385;51.572;6.578;2023-05-10T07:34:12;18.90;62.00
31677;DHT22;18385;51.572;6.578;2023-05-10T07:36:37;19.00;62.00
31677;DHT22;18385;51.572;6.578;2023-05-10T07:39:03;19.00;61.90
31677;DHT22;18385;51.572;6.578;2023-05-10T07:41:29;19.10;62.00
31677;DHT22;18385;51.572;6.578;2023-05-10T07:43:54;19.00;61.80
31677;DHT22;18385;51.572;6.578;2023-05-10T07:46:20;19.00;61.90
31677;DHT22;18385;51.572;6.578;2023-05-10T07:48:46;19.00;62.00
31677;DHT22;18385;51.572;6.578;2023-05-10T07:51:11;19.10;62.00
31677;DHT22;18385;51.572;6.578;2023-05-10T07:53:37;19.30;62.20
31677;DHT22;18385;51.572;6.578;2023-05-10T07:56:25;19.40;61.80
31677;DHT22;18385;51.572;6.578;2023-05-10T07:58:53;19.30;61.50
31677;DHT22;18385;51.572;6.578;2023-05-10T08:01:19;19.30;61.60
31677;DHT22;18385;51.572;6.578;2023-05-10T08:03:45;19.30;61.80
31677;DHT22;18385;51.572;6.578;2023-05-10T08:06:10;19.40;62.00
31677;DHT22;18385;51.572;6.578;2023-05-10T08:08:36;19.60;62.00
31677;DHT22;18385;51.572;6.578;2023-05-10T08:11:03;19.70;61.80
31677;DHT22;18385;51.572;6.578;2023-05-10T08:13:29;19.80;61.50
31677;DHT22;18385;51.572;6.578;2023-05-10T08:15:54;19.80;61.20
31677;DHT22;18385;51.572;6.578;2023-05-10T08:18:20;19.80;61.40
31677;DHT22;18385;51.572;6.578;2023-05-10T08:20:46;19.90;61.60
31677;DHT22;18385;51.572;6.578;2023-05-10T08:23:14;20.10;61.30
31677;DHT22;18385;51.572;6.578;2023-05-10T08:25:40;20.10;60.90
31677;DHT22;18385;51.572;6.578;2023-05-10T08:28:06;19.90;60.80
31677;DHT22;18385;51.572;6.578;2023-05-10T08:30:32;20.00;61.40
31677;DHT22;18385;51.572;6.578;2023-05-10T08:32:57;20.00;61.20
31677;DHT22;18385;51.572;6.578;2023-05-10T08:35:23;20.10;61.60
31677;DHT22;18385;51.572;6.578;2023-05-10T08:37:50;20.40;61.90
31677;DHT22;18385;51.572;6.578;2023-05-10T08:40:16;20.60;61.30
31677;DHT22;18385;51.572;6.578;2023-05-10T08:42:55;20.70;60.70
31677;DHT22;18385;51.572;6.578;2023-05-10T08:45:23;20.70;60.60
31677;DHT22;18385;51.572;6.578;2023-05-10T08:47:49;20.70;60.70
31677;DHT22;18385;51.572;6.578;2023-05-10T08:50:17;20.70;60.80
31677;DHT22;18385;51.572;6.578;2023-05-10T08:52:46;20.80;60.80
31677;DHT22;18385;51.572;6.578;2023-05-10T08:55:13;20.90;60.70
31677;DHT22;18385;51.572;6.578;2023-05-10T08:57:39;20.90;60.40
31677;DHT22;18385;51.572;6.578;2023-05-10T09:00:05;20.70;59.80
31677;DHT22;18385;51.572;6.578;2023-05-10T09:02:31;20.50;60.10
31677;DHT22;18385;51.572;6.578;2023-05-10T09:04:57;20.40;60.40
31677;DHT22;18385;51.572;6.578;2023-05-10T09:07:23;20.30;60.40
31677;DHT22;18385;51.572;6.578;2023-05-10T09:09:48;20.10;60.60
31677;DHT22;18385;51.572;6.578;2023-05-10T09:12:15;20.10;61.10
31677;DHT22;18385;51.572;6.578;2023-05-10T09:14:42;20.20;61.50
31677;DHT22;18385;51.572;6.578;2023-05-10T09:17:09;20.30;61.60
31677;DHT22;18385;51.572;6.578;2023-05-10T09:19:35;20.40;61.10
31677;DHT22;18385;51.572;6.578;2023-05-10T09:22:01;20.50;61.10
31677;DHT22;18385;51.572;6.578;2023-05-10T09:24:30;20.40;61.00
31677;DHT22;18385;51.572;6.578;2023-05-10T09:26:57;20.30;60.80
31677;DHT22;18385;51.572;6.578;2023-05-10T09:29:22;20.00;60.80
31677;DHT22;18385;51.572;6.578;2023-05-10T09:31:50;19.70;61.20
31677;DHT22;18385;51.572;6.578;2023-05-10T09:34:28;19.40;61.40
31677;DHT22;18385;51.572;6.578;2023-05-10T09:37:01;19.20;62.10
31677;DHT22;18385;51.572;6.578;2023-05-10T09:39:36;19.10;62.40
31677;DHT22;18385;51.572;6.578;2023-05-10T09:42:07;19.00;62.70
31677;DHT22;18385;51.572;6.578;2023-05-10T09:44:34;19.00;62.80
31677;DHT22;18385;51.572;6.578;2023-05-10T09:47:01;19.00;63.00
31677;DHT22;18385;51.572;6.578;2023-05-10T09:49:27;19.20;63.10
31677;DHT22;18385;51.572;6.578;2023-05-10T09:52:06;19.40;63.10
31677;DHT22;18385;51.572;6.578;2023-05-10T09:54:32;19.70;62.90
31677;DHT22;18385;51.572;6.578;2023-05-10T09:56:59;19.70;62.30
31677;DHT22;18385;51.572;6.578;2023-05-10T09:59:26;19.60;62.20
31677;DHT22;18385;51.572;6.578;2023-05-10T10:02:01;19.60;62.20
31677;DHT22;18385;51.572;6.578;2023-05-10T10:04:28;19.50;62.50
31677;DHT22;18385;51.572;6.578;2023-05-10T10:07:01;19.70;62.80
31677;DHT22;18385;51.572;6.578;2023-05-10T10:09:28;19.70;62.20
31677;DHT22;18385;51.572;6.578;2023-05-10T10:11:54;19.60;62.40
31677;DHT22;18385;51.572;6.578;2023-05-10T10:14:20;19.70;62.50
31677;DHT22;18385;51.572;6.578;2023-05-10T10:16:47;19.70;62.50
31677;DHT22;18385;51.572;6.578;2023-05-10T10:19:13;19.90;62.70
31677;DHT22;18385;51.572;6.578;2023-05-10T10:21:40;20.10;62.50
31677;DHT22;18385;51.572;6.578;2023-05-10T10:24:06;20.20;62.00
31677;DHT22;18385;51.572;6.578;2023-05-10T10:26:34;20.20;62.00
31677;DHT22;18385;51.572;6.578;2023-05-10T10:29:23;20.10;61.80
31677;DHT22;18385;51.572;6.578;2023-05-10T10:32:06;20.00;61.80
31677;DHT22;18385;51.572;6.578;2023-05-10T10:34:33;19.90;62.10
31677;DHT22;18385;51.572;6.578;2023-05-10T10:37:04;19.60;61.90
31677;DHT22;18385;51.572;6.578;2023-05-10T10:39:31;19.40;62.40
31677;DHT22;18385;51.572;6.578;2023-05-10T10:41:58;19.10;62.60
31677;DHT22;18385;51.572;6.578;2023-05-10T10:49:26;19.20;63.60
31677;DHT22;18385;51.572;6.578;2023-05-10T10:54:39;19.40;63.70
31677;DHT22;18385;51.572;6.578;2023-05-10T10:57:14;19.40;63.40
31677;DHT22;18385;51.572;6.578;2023-05-10T10:59:43;19.40;63.40
31677;DHT22;18385;51.572;6.578;2023-05-10T11:02:33;19.50;63.50
31677;DHT22;18385;51.572;6.578;2023-05-10T11:04:59;19.40;63.40
31677;DHT22;18385;51.572;6.578;2023-05-10T11:07:26;19.40;63.50
31677;DHT22;18385;51.572;6.578;2023-05-10T11:09:51;19.30;63.50
31677;DHT22;18385;51.572;6.578;2023-05-10T11:12:17;19.40;63.60
31677;DHT22;18385;51.572;6.578;2023-05-10T11:14:43;19.30;63.40
31677;DHT22;18385;51.572;6.578;2023-05-10T11:17:27;19.30;63.50
31677;DHT22;18385;51.572;6.578;2023-05-10T11:20:06;19.30;63.80
31677;DHT22;18385;51.572;6.578;2023-05-10T11:22:49;19.50;64.00
31677;DHT22;18385;51.572;6.578;2023-05-10T11:25:16;19.60;63.50
31677;DHT22;18385;51.572;6.578;2023-05-10T11:27:42;19.80;63.50
31677;DHT22;18385;51.572;6.578;2023-05-10T11:30:10;20.20;63.40
31677;DHT22;18385;51.572;6.578;2023-05-10T11:32:40;20.60;63.00
31677;DHT22;18385;51.572;6.578;2023-05-10T11:35:10;21.00;61.90
31677;DHT22;18385;51.572;6.578;2023-05-10T11:37:36;21.40;61.50
31677;DHT22;18385;51.572;6.578;2023-05-10T11:40:02;21.60;60.60
31677;DHT22;18385;51.572;6.578;2023-05-10T11:42:28;21.60;59.70
31677;DHT22;18385;51.572;6.578;2023-05-10T11:44:54;21.60;59.60
31677;DHT22;18385;51.572;6.578;2023-05-10T11:47:20;21.70;59.90
31677;DHT22;18385;51.572;6.578;2023-05-10T11:49:47;21.90;59.60
31677;DHT22;18385;51.572;6.578;2023-05-10T11:52:13;21.80;58.90
31677;DHT22;18385;51.572;6.578;2023-05-10T11:54:51;22.00;59.20
31677;DHT22;18385;51.572;6.578;2023-05-10T11:57:18;22.20;58.90
31677;DHT22;18385;51.572;6.578;2023-05-10T11:59:44;22.50;58.90
31677;DHT22;18385;51.572;6.578;2023-05-10T12:02:12;22.70;58.30
31677;DHT22;18385;51.572;6.578;2023-05-10T12:04:38;22.80;58.10
31677;DHT22;18385;51.572;6.578;2023-05-10T12:07:03;23.10;58.10
31677;DHT22;18385;51.572;6.578;2023-05-10T12:09:30;23.30;57.50
31677;DHT22;18385;51.572;6.578;2023-05-10T12:11:56;23.30;56.90
31677;DHT22;18385;51.572;6.578;2023-05-10T12:14:24;23.30;56.40
31677;DHT22;18385;51.572;6.578;2023-05-10T12:16:50;23.30;56.60
31677;DHT22;18385;51.572;6.578;2023-05-10T12:19:19;23.30;56.70
31677;DHT22;18385;51.572;6.578;2023-05-10T12:21:48;23.30;56.10
31677;DHT22;18385;51.572;6.578;2023-05-10T12:24:14;23.30;56.30
31677;DHT22;18385;51.572;6.578;2023-05-10T12:26:43;23.50;56.20
31677;DHT22;18385;51.572;6.578;2023-05-10T12:29:18;23.50;56.00
31677;DHT22;18385;51.572;6.578;2023-05-10T12:31:58;23.50;55.40
31677;DHT22;18385;51.572;6.578;2023-05-10T12:34:30;23.40;55.40
31677;DHT22;18385;51.572;6.578;2023-05-10T12:36:56;23.50;55.80
31677;DHT22;18385;51.572;6.578;2023-05-10T12:39:22;23.80;55.90
31677;DHT22;18385;51.572;6.578;2023-05-10T12:41:48;23.80;55.00
31677;DHT22;18385;51.572;6.578;2023-05-10T12:44:14;23.80;54.70
31677;DHT22;18385;51.572;6.578;2023-05-10T12:46:40;23.50;54.40
31677;DHT22;18385;51.572;6.578;2023-05-10T12:49:05;23.40;54.80
31677;DHT22;18385;51.572;6.578;2023-05-10T12:51:31;23.30;54.90
31677;DHT22;18385;51.572;6.578;2023-05-10T12:53:57;23.20;54.90
31677;DHT22;18385;51.572;6.578;2023-05-10T12:56:22;23.10;54.50
31677;DHT22;18385;51.572;6.578;2023-05-10T12:58:48;22.90;54.90
31677;DHT22;18385;51.572;6.578;2023-05-10T13:01:14;22.90;55.00
31677;DHT22;18385;51.572;6.578;2023-05-10T13:03:40;22.90;54.60
31677;DHT22;18385;51.572;6.578;2023-05-10T13:06:06;22.80;54.40
31677;DHT22;18385;51.572;6.578;2023-05-10T13:08:32;22.70;54.50
31677;DHT22;18385;51.572;6.578;2023-05-10T13:11:02;22.70;54.40
31677;DHT22;18385;51.572;6.578;2023-05-10T13:13:28;22.60;54.40
31677;DHT22;18385;51.572;6.578;2023-05-10T13:15:53;22.70;54.70
31677;DHT22;18385;51.572;6.578;2023-05-10T13:18:19;22.50;54.30
31677;DHT22;18385;51.572;6.578;2023-05-10T13:20:45;22.30;54.30
31677;DHT22;18385;51.572;6.578;2023-05-10T13:23:11;22.20;54.70
31677;DHT22;18385;51.572;6.578;2023-05-10T13:25:37;22.10;54.60
31677;DHT22;18385;51.572;6.578;2023-05-10T13:28:02;22.10;54.70
31677;DHT22;18385;51.572;6.578;2023-05-10T13:30:28;22.10;54.70
31677;DHT22;18385;51.572;6.578;2023-05-10T13:32:54;22.30;54.70
31677;DHT22;18385;51.572;6.578;2023-05-10T13:35:20;22.30;54.10
31677;DHT22;18385;51.572;6.578;2023-05-10T13:37:46;22.20;53.80
31677;DHT22;18385;51.572;6.578;2023-05-10T13:40:11;22.20;54.00
31677;DHT22;18385;51.572;6.578;2023-05-10T13:42:37;22.40;54.10
31677;DHT22;18385;51.572;6.578;2023-05-10T13:45:04;22.40;53.50
31677;DHT22;18385;51.572;6.578;2023-05-10T13:47:30;22.40;53.40
31677;DHT22;18385;51.572;6.578;2023-05-10T13:49:56;22.40;53.20
31677;DHT22;18385;51.572;6.578;2023-05-10T13:52:22;22.50;53.50
31677;DHT22;18385;51.572;6.578;2023-05-10T13:54:48;22.80;53.70
31677;DHT22;18385;51.572;6.578;2023-05-10T13:57:14;23.20;53.70
31677;DHT22;18385;51.572;6.578;2023-05-10T13:59:42;23.90;53.50
31677;DHT22;18385;51.572;6.578;2023-05-10T14:02:07;24.30;52.60
31677;DHT22;18385;51.572;6.578;2023-05-10T14:04:33;24.60;52.00
31677;DHT22;18385;51.572;6.578;2023-05-10T14:07:00;24.90;51.40
31677;DHT22;18385;51.572;6.578;2023-05-10T14:09:26;24.80;50.60
31677;DHT22;18385;51.572;6.578;2023-05-10T14:11:52;24.80;51.10
31677;DHT22;18385;51.572;6.578;2023-05-10T14:14:17;25.10;50.60
31677;DHT22;18385;51.572;6.578;2023-05-10T14:16:44;24.70;49.90
31677;DHT22;18385;51.572;6.578;2023-05-10T14:19:10;24.40;50.50
31677;DHT22;18385;51.572;6.578;2023-05-10T14:21:37;24.30;50.80
31677;DHT22;18385;51.572;6.578;2023-05-10T14:24:02;24.20;50.70
31677;DHT22;18385;51.572;6.578;2023-05-10T14:26:28;23.80;50.30
31677;DHT22;18385;51.572;6.578;2023-05-10T14:28:54;23.50;50.80
31677;DHT22;18385;51.572;6.578;2023-05-10T14:31:20;23.20;51.30
31677;DHT22;18385;51.572;6.578;2023-05-10T14:33:56;23.00;51.60
31677;DHT22;18385;51.572;6.578;2023-05-10T14:36:25;22.80;51.50
31677;DHT22;18385;51.572;6.578;2023-05-10T14:38:51;22.60;51.90
31677;DHT22;18385;51.572;6.578;2023-05-10T14:41:17;22.40;52.10
31677;DHT22;18385;51.572;6.578;2023-05-10T14:43:43;22.10;52.10
31677;DHT22;18385;51.572;6.578;2023-05-10T14:46:09;21.90;52.30
31677;DHT22;18385;51.572;6.578;2023-05-10T14:48:35;21.60;52.30
31677;DHT22;18385;51.572;6.578;2023-05-10T14:51:01;21.30;52.30
31677;DHT22;18385;51.572;6.578;2023-05-10T14:53:27;21.00;52.40
31677;DHT22;18385;51.572;6.578;2023-05-10T14:55:52;20.80;52.70
31677;DHT22;18385;51.572;6.578;2023-05-10T14:58:18;20.70;52.80
31677;DHT22;18385;51.572;6.578;2023-05-10T15:00:43;20.40;53.00
31677;DHT22;18385;51.572;6.578;2023-05-10T15:03:09;20.30;53.40
31677;DHT22;18385;51.572;6.578;2023-05-10T15:05:35;20.40;53.80
31677;DHT22;18385;51.572;6.578;2023-05-10T15:08:02;20.30;53.50
31677;DHT22;18385;51.572;6.578;2023-05-10T15:10:28;20.30;53.50
31677;DHT22;18385;51.572;6.578;2023-05-10T15:12:54;20.00;53.40
31677;DHT22;18385;51.572;6.578;2023-05-10T15:15:19;19.80;53.70
31677;DHT22;18385;51.572;6.578;2023-05-10T15:17:45;19.70;54.10
31677;DHT22;18385;51.572;6.578;2023-05-10T15:20:11;19.60;54.30
31677;DHT22;18385;51.572;6.578;2023-05-10T15:22:37;19.50;54.50
31677;DHT22;18385;51.572;6.578;2023-05-10T15:25:03;19.50;54.70
31677;DHT22;18385;51.572;6.578;2023-05-10T15:27:29;19.50;55.10
31677;DHT22;18385;51.572;6.578;2023-05-10T15:29:55;19.50;55.00
31677;DHT22;18385;51.572;6.578;2023-05-10T15:32:21;19.50;55.00
31677;DHT22;18385;51.572;6.578;2023-05-10T15:34:46;19.40;55.10
31677;DHT22;18385;51.572;6.578;2023-05-10T15:37:12;19.50;55.70
31677;DHT22;18385;51.572;6.578;2023-05-10T15:39:38;19.60;55.20
31677;DHT22;18385;51.572;6.578;2023-05-10T15:42:03;19.40;55.20
31677;DHT22;18385;51.572;6.578;2023-05-10T15:44:29;19.20;55.20
31677;DHT22;18385;51.572;6.578;2023-05-10T15:46:55;19.10;55.90
31677;DHT22;18385;51.572;6.578;2023-05-10T15:49:21;19.10;56.30
31677;DHT22;18385;51.572;6.578;2023-05-10T15:51:46;19.10;56.60
31677;DHT22;18385;51.572;6.578;2023-05-10T15:54:12;19.10;56.90